Latest Weather Observations for Tuggeranong

IDN60901

Issued at 6:31 pm EDT Tuesday 10 December 2019 (issued every 10 minutes, with the page automatically refreshed every 10 minutes)

About weather observations | Map of Canberra area stations | Latest observations for Canberra area | Other Formats
Station Details ID: 070339 Name: TUGGERANONG (ISABELLA PLAINS) AWS Lat: -35.42 Lon: 149.09 Height: 586.7 m
Data from the previous 72 hours. | See also: Recent months at Tuggeranong
Date/Time
EDT
Temp
°C
App
Temp
°C
Dew
Point
°C
Rel
Hum
%
Delta-T
°C
Wind Press
QNH
hPa
Press
MSL
hPa
Rain since
9am
mm
Dir  Spd
km/h
Gust
km/h
Spd
kts
Gust
kts
10/06:30pm 34.4 29.7 5.0 16 16.1 WNW 19 28 10 15 1011.8 1009.4 0.0
10/06:00pm 34.8 28.6 4.4 15 16.5 W 26 37 14 20 1011.6 1009.2 0.0
10/05:38pm 34.5 27.7 3.1 14 16.7 NW 28 46 15 25 1011.4 1009.0 0.0
10/05:30pm 34.7 28.7 3.3 14 16.8 NW 24 43 13 23 1011.4 1009.0 0.0
10/05:00pm 36.0 30.5 2.1 12 17.9 W 20 41 11 22 1011.4 1009.0 0.0
10/04:30pm 36.3 28.6 -0.2 10 18.6 W 30 57 16 31 1011.5 1009.1 0.0
10/04:28pm 36.5 29.4 1.3 11 18.4 W 28 57 15 31 1011.5 1009.1 0.0
10/04:00pm 37.0 30.5 0.4 10 18.9 W 24 41 13 22 1011.7 1009.3 0.0
10/03:48pm 37.0 30.3 -1.1 9 19.2 WNW 24 46 13 25 1011.7 1009.3 0.0
10/03:30pm 35.6 29.3 -0.7 10 18.3 NW 22 41 12 22 1011.7 1009.3 0.0
10/03:00pm 36.0 29.8 -0.4 10 18.5 WNW 22 35 12 19 1012.2 1009.7 0.0
10/02:30pm 36.3 28.8 -1.6 9 18.9 NW 28 41 15 22 1012.4 1009.9 0.0
10/02:00pm 36.8 29.5 -2.8 8 19.4 W 26 37 14 20 1012.6 1010.1 0.0
10/01:49pm 36.6 28.1 -3.0 8 19.3 W 32 50 17 27 1012.7 1010.2 0.0
10/01:30pm 36.2 29.2 -3.3 8 19.1 NW 24 41 13 22 1012.8 1010.3 0.0
10/01:00pm 36.0 29.4 -3.4 8 19.1 WNW 22 39 12 21 1013.1 1010.7 0.0
10/12:30pm 36.4 30.4 -3.1 8 19.2 NNW 19 35 10 19 1013.2 1010.8 0.0
10/12:00pm 35.3 29.6 -0.9 10 18.1 NNW 19 41 10 22 1013.7 1011.3 0.0
10/11:30am 33.9 29.8 4.6 16 15.9 NNW 15 30 8 16 1014.3 1011.8 0.0
10/11:00am 32.3 28.7 5.0 18 14.8 N 13 22 7 12 1014.5 1012.1 0.0
10/10:30am 30.9 28.4 6.7 22 13.4 NNE 9 15 5 8 1014.8 1012.4 0.0
10/10:00am 28.9 28.4 8.0 27 11.7 CALM 0 2 0 1 1015.2 1012.8 0.0
10/09:30am 26.1 25.1 7.2 30 10.3 NW 2 7 1 4 1015.7 1013.2 0.0
10/09:00am 23.5 22.0 6.7 34 8.9 NW 4 7 2 4 1015.9 1013.4 0.0
10/08:30am 21.2 20.4 6.7 39 7.6 CALM 0 6 0 3 1016.0 1013.6 0.0
10/08:00am 19.6 19.1 7.7 46 6.3 CALM 0 0 0 0 1016.0 1013.6 0.0
10/07:30am 16.6 16.0 7.5 55 4.7 CALM 0 0 0 0 1016.0 1013.6 0.0
10/07:00am 15.6 15.0 7.4 58 4.2 CALM 0 7 0 4 1015.7 1013.2 0.0
10/06:30am 13.8 13.1 7.1 64 3.4 CALM 0 0 0 0 1015.5 1013.1 0.0
10/06:00am 12.2 11.5 6.9 70 2.6 CALM 0 0 0 0 1015.5 1013.1 0.0
10/05:30am 11.7 10.8 6.2 69 2.7 CALM 0 0 0 0 1015.5 1013.1 0.0
10/05:00am 12.6 12.0 7.3 70 2.7 CALM 0 0 0 0 1015.4 1013.0 0.0
10/04:30am 12.5 11.7 6.3 66 3.0 CALM 0 0 0 0 1015.2 1012.8 0.0
10/04:00am 12.8 12.1 6.8 67 3.0 CALM 0 0 0 0 1015.2 1012.8 0.0
10/03:30am 13.5 12.8 7.1 65 3.2 CALM 0 0 0 0 1015.3 1012.9 0.0
10/03:00am 14.0 13.3 6.8 62 3.6 CALM 0 0 0 0 1015.4 1013.0 0.0
10/02:30am 14.1 13.3 6.7 61 3.7 CALM 0 0 0 0 1015.8 1013.3 0.0
10/02:00am 15.2 14.7 8.0 62 3.7 CALM 0 0 0 0 1016.0 1013.6 0.0
10/01:30am 15.5 14.9 7.3 58 4.2 CALM 0 0 0 0 1016.2 1013.8 0.0
10/01:00am 16.1 15.4 7.1 55 4.6 CALM 0 0 0 0 1016.4 1014.0 0.0
10/12:30am 17.0 16.3 7.1 52 5.1 CALM 0 0 0 0 1016.6 1014.2 0.0
10/12:00am 18.5 16.9 7.9 50 5.6 E 6 7 3 4 1016.8 1014.4 0.0
 
Date/Time
EDT
Temp
°C
App
Temp
°C
Dew
Point
°C
Rel
Hum
%
Delta-T
°C
Wind Press
QNH
hPa
Press
MSL
hPa
Rain since
9am
mm
Dir  Spd
km/h
Gust
km/h
Spd
kts
Gust
kts
09/11:30pm 19.0 18.5 7.8 48 5.9 CALM 0 0 0 0 1016.9 1014.5 0.0
09/11:00pm 19.8 19.2 7.2 44 6.6 CALM 0 0 0 0 1017.0 1014.6 0.0
09/10:30pm 21.1 20.6 8.0 43 7.0 CALM 0 0 0 0 1017.0 1014.6 0.0
09/10:00pm 21.7 21.1 7.2 39 7.7 CALM 0 6 0 3 1016.9 1014.5 0.0
09/09:30pm 22.9 21.1 7.8 38 8.1 ESE 7 9 4 5 1016.9 1014.5 0.0
09/09:00pm 24.0 23.2 8.0 36 8.7 ENE 2 9 1 5 1016.8 1014.4 0.0
09/08:30pm 25.9 25.6 8.8 34 9.5 CALM 0 0 0 0 1016.7 1014.3 0.0
09/08:00pm 28.4 27.6 6.5 25 11.9 CALM 0 0 0 0 1016.5 1014.1 0.0
09/07:30pm 30.1 27.6 6.7 23 12.9 WNW 9 15 5 8 1016.5 1014.1 0.0
09/07:00pm 30.4 26.7 6.3 22 13.2 WNW 15 24 8 13 1016.2 1013.8 0.0
09/06:30pm 30.8 26.1 5.3 20 13.8 NW 19 28 10 15 1015.8 1013.3 0.0
09/06:00pm 32.1 27.9 5.6 19 14.5 NW 17 28 9 15 1015.5 1013.1 0.0
09/05:30pm 32.4 27.4 3.4 16 15.3 WNW 19 30 10 16 1015.5 1013.1 0.0
09/05:00pm 33.5 28.1 1.3 13 16.5 W 19 35 10 19 1015.4 1013.0 0.0
09/04:30pm 33.6 29.3 3.4 15 16.0 W 15 28 8 15 1015.7 1013.2 0.0
09/04:00pm 33.6 28.7 5.2 17 15.5 W 20 32 11 17 1015.9 1013.4 0.0
09/03:30pm 33.5 29.3 5.9 18 15.2 NW 17 32 9 17 1016.2 1013.8 0.0
09/03:00pm 32.7 27.5 3.6 16 15.4 NW 20 32 11 17 1016.6 1014.2 0.0
09/02:30pm 32.8 28.7 6.2 19 14.7 NNW 17 28 9 15 1017.0 1014.6 0.0
09/02:00pm 32.4 28.2 7.3 21 14.1 WNW 19 32 10 17 1017.5 1015.1 0.0
09/01:30pm 31.4 29.2 10.7 28 12.2 NNW 13 24 7 13 1018.2 1015.8 0.0
09/01:00pm 29.7 26.8 9.8 29 11.5 NNW 15 26 8 14 1018.6 1016.2 0.0
09/12:30pm 29.3 27.3 11.4 33 10.6 NNW 13 26 7 14 1019.3 1016.9 0.0
09/12:00pm 27.0 24.7 11.9 39 8.9 NNW 15 28 8 15 1019.8 1017.4 0.0
09/11:30am 25.0 24.1 12.6 46 7.3 NNW 9 19 5 10 1020.1 1017.7 0.0
09/11:00am 23.5 22.5 12.2 49 6.6 N 9 15 5 8 1020.5 1018.2 0.0
09/10:30am 22.8 22.3 12.7 53 5.9 NE 7 13 4 7 1020.9 1018.6 0.0
09/10:00am 21.9 22.0 12.7 56 5.4 E 4 7 2 4 1021.3 1018.9 0.0
09/09:30am 20.7 20.5 12.9 61 4.6 SW 6 9 3 5 1021.6 1019.2 0.0
09/09:00am 19.3 18.8 12.6 65 3.9 WSW 7 9 4 5 1021.9 1019.5 0.0
09/08:30am 18.3 18.6 12.3 68 3.4 NNE 2 11 1 6 1022.2 1019.9 0.0
09/08:00am 17.6 17.2 12.3 71 3.0 N 6 11 3 6 1022.3 1020.0 0.0
09/07:30am 17.6 17.2 12.5 72 2.9 N 6 9 3 5 1022.2 1019.9 0.0
09/07:00am 17.4 16.9 12.5 73 2.8 E 7 11 4 6 1022.0 1019.7 0.0
09/06:30am 17.2 16.8 12.3 73 2.8 ESE 6 7 3 4 1022.0 1019.7 0.0
09/06:00am 17.1 16.6 12.2 73 2.8 NNE 6 7 3 4 1021.9 1019.5 0.0
09/05:30am 17.1 17.5 12.4 74 2.7 ENE 2 9 1 5 1021.7 1019.3 0.0
09/05:00am 17.2 16.8 12.3 73 2.8 ESE 6 9 3 5 1021.5 1019.1 0.0
09/04:30am 17.3 16.9 12.4 73 2.8 ENE 6 9 3 5 1021.4 1019.0 0.0
09/04:00am 17.3 17.0 12.6 74 2.7 NE 6 9 3 5 1021.5 1019.1 0.0
09/03:30am 17.3 16.8 12.8 75 2.6 NE 7 9 4 5 1021.6 1019.2 0.0
09/03:00am 17.2 16.9 12.7 75 2.6 E 6 11 3 6 1021.7 1019.3 0.0
09/02:30am 17.3 16.5 12.8 75 2.6 E 9 13 5 7 1022.0 1019.7 0.0
09/02:00am 17.3 16.4 12.6 74 2.7 E 9 13 5 7 1022.2 1019.9 0.0
09/01:30am 17.3 16.8 12.6 74 2.7 ENE 7 13 4 7 1022.2 1019.9 0.0
09/01:00am 17.4 17.1 12.7 74 2.7 E 6 9 3 5 1022.4 1020.1 0.0
09/12:30am 17.3 16.8 12.8 75 2.6 ENE 7 11 4 6 1022.6 1020.3 0.0
09/12:00am 17.4 16.9 12.7 74 2.7 E 7 13 4 7 1022.9 1020.5 0.0
 
Date/Time
EDT
Temp
°C
App
Temp
°C
Dew
Point
°C
Rel
Hum
%
Delta-T
°C
Wind Press
QNH
hPa
Press
MSL
hPa
Rain since
9am
mm
Dir  Spd
km/h
Gust
km/h
Spd
kts
Gust
kts
08/11:30pm 17.4 17.0 12.3 72 2.9 SSE 6 7 3 4 1023.0 1020.6 0.0
08/11:00pm 17.3 16.7 12.2 72 2.9 SE 7 11 4 6 1023.1 1020.7 0.0
08/10:30pm 17.2 16.7 12.1 72 2.9 SE 6 7 3 4 1023.1 1020.7 0.0
08/10:00pm 17.1 16.6 12.0 72 2.9 SE 6 13 3 7 1022.7 1020.4 0.0
08/09:30pm 17.2 16.5 12.1 72 2.9 ESE 7 13 4 7 1022.2 1019.9 0.0
08/09:00pm 17.3 15.5 12.0 71 3.0 ESE 13 19 7 10 1021.9 1019.5 0.0
08/08:30pm 18.8 17.4 12.3 66 3.7 ENE 11 17 6 9 1021.1 1018.7 0.0
08/08:00pm 19.7 18.3 12.2 62 4.3 E 11 19 6 10 1020.2 1017.8 0.0
08/07:30pm 21.1 18.6 12.3 57 5.1 E 17 26 9 14 1019.1 1016.8 0.0
08/07:00pm 22.6 19.5 12.3 52 6.0 ENE 20 37 11 20 1018.0 1015.6 0.0
08/06:30pm 24.0 20.1 12.0 47 7.0 ENE 24 37 13 20 1017.3 1014.9 0.0
08/06:00pm 25.3 21.6 11.5 42 8.0 ENE 22 32 12 17 1017.0 1014.6 0.0
08/05:30pm 26.5 22.7 11.0 38 9.0 ENE 22 33 12 18 1016.7 1014.3 0.0
08/05:00pm 27.7 24.0 10.0 33 10.1 ENE 20 32 11 17 1016.7 1014.3 0.0
08/04:30pm 29.6 27.6 6.9 24 12.5 NNE 7 17 4 9 1016.7 1014.3 0.0
08/04:00pm 28.3 25.9 7.0 26 11.7 NE 9 26 5 14 1016.9 1014.5 0.0
08/03:30pm 28.2 25.4 6.9 26 11.6 ENE 11 19 6 10 1017.1 1014.7 0.0
08/03:00pm 28.0 24.5 7.3 27 11.4 N 15 24 8 13 1017.3 1014.9 0.0
08/02:30pm 27.5 24.3 6.8 27 11.2 N 13 22 7 12 1017.7 1015.3 0.0
08/02:00pm 27.3 24.6 7.2 28 11.0 N 11 20 6 11 1018.0 1015.6 0.0
08/01:30pm 26.0 23.6 7.1 30 10.2 W 9 15 5 8 1018.2 1015.8 0.0
08/01:00pm 25.6 23.7 9.0 35 9.3 N 9 15 5 8 1018.6 1016.2 0.0
08/12:30pm 24.7 23.2 8.6 36 8.9 NNW 6 11 3 6 1018.8 1016.4 0.0
08/12:00pm 23.7 22.1 8.6 38 8.3 NW 7 15 4 8 1019.1 1016.8 0.0
08/11:30am 23.3 21.1 9.3 41 7.8 SE 11 15 6 8 1019.5 1017.1 0.0
08/11:00am 22.2 20.5 9.7 45 6.9 E 9 17 5 9 1019.8 1017.4 0.0
08/10:30am 21.1 20.0 10.6 51 5.9 NW 7 15 4 8 1019.9 1017.5 0.0
08/10:00am 20.1 19.0 10.5 54 5.3 N 7 11 4 6 1019.9 1017.5 0.0
08/09:30am 18.7 17.0 9.8 56 4.9 E 9 13 5 7 1019.8 1017.4 0.0
08/09:00am 17.9 16.2 10.0 60 4.3 NNE 9 13 5 7 1019.9 1017.5 0.0
08/08:30am 17.4 16.2 10.3 63 3.9 ESE 7 11 4 6 1020.0 1017.6 0.0
08/08:00am 16.4 14.8 10.3 67 3.3 NE 9 13 5 7 1019.8 1017.4 0.0
08/07:30am 15.6 14.5 10.8 73 2.6 ENE 7 13 4 7 1019.9 1017.5 0.0
08/07:00am 15.0 14.5 10.8 76 2.3 ENE 4 9 2 5 1019.5 1017.1 0.0
08/06:30am 14.2 13.3 10.8 80 1.8 ENE 6 7 3 4 1019.3 1016.9 0.0
08/06:00am 12.9 12.9 9.9 82 1.6 CALM 0 0 0 0 1019.1 1016.8 0.0
08/05:30am 13.6 13.6 9.8 78 2.0 CALM 0 0 0 0 1018.6 1016.2 0.0
08/05:00am 14.4 13.4 10.4 77 2.2 E 6 7 3 4 1018.2 1015.8 0.0
08/04:30am 14.9 13.8 10.7 76 2.3 ENE 7 11 4 6 1018.0 1015.6 0.0
08/04:00am 14.8 14.0 11.0 78 2.1 ENE 6 7 3 4 1017.6 1015.2 0.0
08/03:30am 15.0 14.0 11.0 77 2.2 E 7 11 4 6 1017.8 1015.4 0.0
08/03:00am 15.3 14.0 11.1 76 2.3 ENE 9 13 5 7 1017.7 1015.3 0.0
08/02:30am 15.7 14.8 11.3 75 2.4 NE 7 9 4 5 1018.0 1015.6 0.0
08/02:00am 15.7 15.8 11.5 76 2.3 ENE 2 7 1 4 1018.0 1015.6 0.0
08/01:30am 15.3 15.7 11.3 77 2.2 CALM 0 0 0 0 1018.0 1015.6 0.0
08/01:00am 15.1 14.4 11.3 78 2.1 E 6 9 3 5 1018.0 1015.6 0.0
08/12:30am 15.4 14.5 11.4 77 2.2 ESE 7 11 4 6 1018.1 1015.7 0.0
08/12:00am 15.4 14.6 11.6 78 2.1 E 7 15 4 8 1017.9 1015.5 0.0
 
Date/Time
EDT
Temp
°C
App
Temp
°C
Dew
Point
°C
Rel
Hum
%
Delta-T
°C
Wind Press
QNH
hPa
Press
MSL
hPa
Rain since
9am
mm
Dir  Spd
km/h
Gust
km/h
Spd
kts
Gust
kts
07/11:30pm 15.7 14.5 11.7 77 2.2 E 9 15 5 8 1017.9 1015.5 0.0
07/11:00pm 15.9 14.7 11.7 76 2.3 E 9 17 5 9 1017.3 1014.9 0.0
07/10:30pm 16.3 14.4 11.9 75 2.5 E 13 20 7 11 1016.9 1014.5 0.0
07/10:00pm 16.8 13.7 11.7 72 2.9 E 19 28 10 15 1016.5 1014.1 0.0
07/09:30pm 17.5 14.7 11.5 68 3.4 E 17 30 9 16 1015.9 1013.4 0.0
07/09:00pm 18.8 16.1 10.4 58 4.6 ENE 15 28 8 15 1015.2 1012.8 0.0
07/08:30pm 22.5 19.0 1.5 25 10.1 WNW 9 13 5 7 1014.2 1011.7 0.0
07/08:00pm 23.7 18.8 2.0 24 10.6 WNW 17 26 9 14 1013.6 1011.2 0.0
07/07:30pm 24.9 19.4 1.7 22 11.3 WNW 20 28 11 15 1013.0 1010.6 0.0
07/07:00pm 25.8 20.3 1.8 21 11.8 WNW 20 30 11 16 1012.5 1010.0 0.0

Latest Capital City Observations: Canberra | Sydney | Melbourne | Brisbane | Adelaide | Perth | Hobart | Darwin

Other formats

Comma delimited format used in spreadsheet applications
http://www.bom.gov.au/fwo/IDN60903/IDN60903.94925.axf

JavaScript Object Notation format (JSON) in row-major order
http://www.bom.gov.au/fwo/IDN60903/IDN60903.94925.json

Data quality

Most of these data are generated automatically and are frequently updated. Quality checks on data are not normally performed. It is possible for incorrect values to appear. Refer to information at About Latest Weather Observations and please check the disclaimer before using these data.